sensor_id;sensor_type;location;lat;lon;timestamp;P1;durP1;ratioP1;P2;durP2;ratioP2
80123;SDS011;69433;48.642;9.142;2023-12-28T00:01:16;12.98;;;8.18;;
80123;SDS011;69433;48.642;9.142;2023-12-28T00:03:57;10.70;;;7.68;;
80123;SDS011;69433;48.642;9.142;2023-12-28T00:06:40;11.57;;;7.38;;
80123;SDS011;69433;48.642;9.142;2023-12-28T00:09:18;11.65;;;8.07;;
80123;SDS011;69433;48.642;9.142;2023-12-28T00:11:56;11.20;;;8.13;;
80123;SDS011;69433;48.642;9.142;2023-12-28T00:14:26;10.45;;;7.07;;
80123;SDS011;69433;48.642;9.142;2023-12-28T00:22:04;11.60;;;7.97;;
80123;SDS011;69433;48.642;9.142;2023-12-28T00:24:29;10.63;;;7.63;;
80123;SDS011;69433;48.642;9.142;2023-12-28T00:26:55;11.82;;;7.93;;
80123;SDS011;69433;48.642;9.142;2023-12-28T00:29:20;11.57;;;8.02;;
80123;SDS011;69433;48.642;9.142;2023-12-28T00:34:44;9.77;;;7.15;;
80123;SDS011;69433;48.642;9.142;2023-12-28T00:40:12;10.80;;;7.55;;
80123;SDS011;69433;48.642;9.142;2023-12-28T00:45:07;11.77;;;6.88;;
80123;SDS011;69433;48.642;9.142;2023-12-28T00:50:02;11.20;;;7.20;;
80123;SDS011;69433;48.642;9.142;2023-12-28T00:55:16;10.55;;;6.93;;
80123;SDS011;69433;48.642;9.142;2023-12-28T00:57:42;10.75;;;6.85;;
80123;SDS011;69433;48.642;9.142;2023-12-28T01:00:07;9.73;;;6.72;;
80123;SDS011;69433;48.642;9.142;2023-12-28T01:02:52;10.27;;;6.75;;
80123;SDS011;69433;48.642;9.142;2023-12-28T01:07:46;12.13;;;7.07;;
80123;SDS011;69433;48.642;9.142;2023-12-28T01:10:18;8.98;;;6.22;;
80123;SDS011;69433;48.642;9.142;2023-12-28T01:12:48;13.40;;;6.53;;
80123;SDS011;69433;48.642;9.142;2023-12-28T01:20:50;9.85;;;6.70;;
80123;SDS011;69433;48.642;9.142;2023-12-28T01:28:59;11.20;;;6.78;;
80123;SDS011;69433;48.642;9.142;2023-12-28T01:31:27;10.35;;;6.82;;
80123;SDS011;69433;48.642;9.142;2023-12-28T01:36:49;9.63;;;6.85;;
80123;SDS011;69433;48.642;9.142;2023-12-28T01:39:14;9.82;;;5.93;;
80123;SDS011;69433;48.642;9.142;2023-12-28T01:41:53;9.90;;;6.13;;
80123;SDS011;69433;48.642;9.142;2023-12-28T01:44:18;7.93;;;6.22;;
80123;SDS011;69433;48.642;9.142;2023-12-28T01:46:49;10.55;;;6.53;;
80123;SDS011;69433;48.642;9.142;2023-12-28T01:49:31;9.25;;;6.20;;
80123;SDS011;69433;48.642;9.142;2023-12-28T01:51:59;11.90;;;6.70;;
80123;SDS011;69433;48.642;9.142;2023-12-28T01:54:26;10.50;;;6.63;;
80123;SDS011;69433;48.642;9.142;2023-12-28T01:59:27;8.43;;;6.15;;
80123;SDS011;69433;48.642;9.142;2023-12-28T02:01:52;9.82;;;5.85;;
80123;SDS011;69433;48.642;9.142;2023-12-28T02:04:26;8.40;;;6.07;;
80123;SDS011;69433;48.642;9.142;2023-12-28T02:07:01;10.40;;;6.43;;
80123;SDS011;69433;48.642;9.142;2023-12-28T02:09:28;8.25;;;5.47;;
80123;SDS011;69433;48.642;9.142;2023-12-28T02:11:58;10.02;;;6.15;;
80123;SDS011;69433;48.642;9.142;2023-12-28T02:14:35;9.88;;;5.40;;
80123;SDS011;69433;48.642;9.142;2023-12-28T02:17:11;8.05;;;5.53;;
80123;SDS011;69433;48.642;9.142;2023-12-28T02:19:47;8.13;;;5.70;;
80123;SDS011;69433;48.642;9.142;2023-12-28T02:22:23;9.75;;;5.25;;
80123;SDS011;69433;48.642;9.142;2023-12-28T02:25:04;11.10;;;5.90;;
80123;SDS011;69433;48.642;9.142;2023-12-28T02:27:34;10.05;;;5.85;;
80123;SDS011;69433;48.642;9.142;2023-12-28T02:36:06;9.18;;;5.75;;
80123;SDS011;69433;48.642;9.142;2023-12-28T02:38:44;8.07;;;5.10;;
80123;SDS011;69433;48.642;9.142;2023-12-28T02:41:11;7.95;;;5.82;;
80123;SDS011;69433;48.642;9.142;2023-12-28T02:49:20;7.82;;;5.13;;
80123;SDS011;69433;48.642;9.142;2023-12-28T02:54:55;8.38;;;5.30;;
80123;SDS011;69433;48.642;9.142;2023-12-28T02:57:32;8.07;;;5.22;;
80123;SDS011;69433;48.642;9.142;2023-12-28T03:05:29;7.95;;;5.15;;
80123;SDS011;69433;48.642;9.142;2023-12-28T03:08:02;8.38;;;5.45;;
80123;SDS011;69433;48.642;9.142;2023-12-28T03:10:35;8.50;;;4.95;;
80123;SDS011;69433;48.642;9.142;2023-12-28T03:13:02;8.23;;;5.00;;
80123;SDS011;69433;48.642;9.142;2023-12-28T03:15:27;7.78;;;4.78;;
80123;SDS011;69433;48.642;9.142;2023-12-28T03:17:59;8.38;;;5.07;;
80123;SDS011;69433;48.642;9.142;2023-12-28T03:20:26;7.50;;;4.72;;
80123;SDS011;69433;48.642;9.142;2023-12-28T03:22:59;8.02;;;5.18;;
80123;SDS011;69433;48.642;9.142;2023-12-28T03:25:25;7.78;;;4.90;;
80123;SDS011;69433;48.642;9.142;2023-12-28T03:27:51;6.70;;;4.65;;
80123;SDS011;69433;48.642;9.142;2023-12-28T03:30:16;8.70;;;5.20;;
80123;SDS011;69433;48.642;9.142;2023-12-28T03:32:48;7.70;;;5.03;;
80123;SDS011;69433;48.642;9.142;2023-12-28T03:38:05;7.22;;;4.80;;
80123;SDS011;69433;48.642;9.142;2023-12-28T03:43:26;7.40;;;4.75;;
80123;SDS011;69433;48.642;9.142;2023-12-28T03:45:51;6.78;;;5.05;;
80123;SDS011;69433;48.642;9.142;2023-12-28T03:48:22;6.75;;;4.70;;
80123;SDS011;69433;48.642;9.142;2023-12-28T03:50:48;6.45;;;4.78;;
80123;SDS011;69433;48.642;9.142;2023-12-28T03:53:25;6.90;;;4.70;;
80123;SDS011;69433;48.642;9.142;2023-12-28T03:56:00;7.70;;;4.43;;
80123;SDS011;69433;48.642;9.142;2023-12-28T03:58:35;5.55;;;4.07;;
80123;SDS011;69433;48.642;9.142;2023-12-28T04:01:01;6.53;;;4.85;;
80123;SDS011;69433;48.642;9.142;2023-12-28T04:03:42;6.68;;;4.68;;
80123;SDS011;69433;48.642;9.142;2023-12-28T04:06:15;7.25;;;4.45;;
80123;SDS011;69433;48.642;9.142;2023-12-28T04:08:52;6.35;;;4.43;;
80123;SDS011;69433;48.642;9.142;2023-12-28T04:19:24;7.38;;;4.63;;
80123;SDS011;69433;48.642;9.142;2023-12-28T04:21:55;5.53;;;3.97;;
80123;SDS011;69433;48.642;9.142;2023-12-28T04:27:17;6.07;;;4.20;;
80123;SDS011;69433;48.642;9.142;2023-12-28T04:29:48;5.97;;;3.70;;
80123;SDS011;69433;48.642;9.142;2023-12-28T04:32:14;6.68;;;3.90;;
80123;SDS011;69433;48.642;9.142;2023-12-28T04:34:39;4.47;;;3.20;;
80123;SDS011;69433;48.642;9.142;2023-12-28T04:37:04;5.82;;;3.28;;
80123;SDS011;69433;48.642;9.142;2023-12-28T04:39:29;4.90;;;3.55;;
80123;SDS011;69433;48.642;9.142;2023-12-28T04:41:55;4.78;;;2.92;;
80123;SDS011;69433;48.642;9.142;2023-12-28T04:44:39;5.63;;;3.65;;
80123;SDS011;69433;48.642;9.142;2023-12-28T04:49:56;4.47;;;2.90;;
80123;SDS011;69433;48.642;9.142;2023-12-28T04:52:23;3.90;;;2.80;;
80123;SDS011;69433;48.642;9.142;2023-12-28T04:54:49;4.65;;;3.20;;
80123;SDS011;69433;48.642;9.142;2023-12-28T04:57:28;4.32;;;2.72;;
80123;SDS011;69433;48.642;9.142;2023-12-28T05:00:12;4.38;;;3.25;;
80123;SDS011;69433;48.642;9.142;2023-12-28T05:02:37;6.57;;;2.92;;
80123;SDS011;69433;48.642;9.142;2023-12-28T05:05:05;6.55;;;3.20;;
80123;SDS011;69433;48.642;9.142;2023-12-28T05:07:44;5.20;;;2.90;;
80123;SDS011;69433;48.642;9.142;2023-12-28T05:10:15;4.40;;;2.72;;
80123;SDS011;69433;48.642;9.142;2023-12-28T05:17:45;7.13;;;3.10;;
80123;SDS011;69433;48.642;9.142;2023-12-28T05:20:10;4.55;;;2.72;;
80123;SDS011;69433;48.642;9.142;2023-12-28T05:22:44;6.65;;;2.72;;
80123;SDS011;69433;48.642;9.142;2023-12-28T05:25:23;3.75;;;2.60;;
80123;SDS011;69433;48.642;9.142;2023-12-28T05:33:28;6.25;;;2.53;;
80123;SDS011;69433;48.642;9.142;2023-12-28T05:35:54;5.60;;;2.40;;
80123;SDS011;69433;48.642;9.142;2023-12-28T05:41:18;7.90;;;2.50;;
80123;SDS011;69433;48.642;9.142;2023-12-28T05:43:43;3.28;;;2.50;;
80123;SDS011;69433;48.642;9.142;2023-12-28T05:46:10;4.80;;;2.72;;
80123;SDS011;69433;48.642;9.142;2023-12-28T05:48:54;7.88;;;2.72;;
80123;SDS011;69433;48.642;9.142;2023-12-28T05:51:36;5.32;;;2.70;;
80123;SDS011;69433;48.642;9.142;2023-12-28T05:56:42;6.95;;;3.20;;
80123;SDS011;69433;48.642;9.142;2023-12-28T06:05:01;6.43;;;2.50;;
80123;SDS011;69433;48.642;9.142;2023-12-28T06:13:34;4.70;;;2.80;;
80123;SDS011;69433;48.642;9.142;2023-12-28T06:16:01;4.03;;;2.33;;
80123;SDS011;69433;48.642;9.142;2023-12-28T06:21:52;4.63;;;2.33;;
80123;SDS011;69433;48.642;9.142;2023-12-28T06:24:19;4.03;;;2.72;;
80123;SDS011;69433;48.642;9.142;2023-12-28T06:29:58;4.90;;;2.75;;
80123;SDS011;69433;48.642;9.142;2023-12-28T06:35:29;4.68;;;3.08;;
80123;SDS011;69433;48.642;9.142;2023-12-28T06:37:55;5.72;;;2.22;;
80123;SDS011;69433;48.642;9.142;2023-12-28T06:40:21;5.00;;;2.40;;
80123;SDS011;69433;48.642;9.142;2023-12-28T06:51:31;3.47;;;2.22;;
80123;SDS011;69433;48.642;9.142;2023-12-28T06:57:23;6.78;;;2.65;;
80123;SDS011;69433;48.642;9.142;2023-12-28T06:59:49;6.32;;;2.72;;
80123;SDS011;69433;48.642;9.142;2023-12-28T07:05:30;4.82;;;2.30;;
80123;SDS011;69433;48.642;9.142;2023-12-28T07:08:02;4.38;;;2.20;;
80123;SDS011;69433;48.642;9.142;2023-12-28T07:10:36;3.58;;;1.90;;
80123;SDS011;69433;48.642;9.142;2023-12-28T07:13:10;3.28;;;2.28;;
80123;SDS011;69433;48.642;9.142;2023-12-28T07:15:46;4.80;;;2.13;;
80123;SDS011;69433;48.642;9.142;2023-12-28T07:18:11;4.25;;;2.58;;
80123;SDS011;69433;48.642;9.142;2023-12-28T07:20:37;5.00;;;2.17;;
80123;SDS011;69433;48.642;9.142;2023-12-28T07:23:02;3.72;;;2.20;;
80123;SDS011;69433;48.642;9.142;2023-12-28T07:28:51;3.38;;;2.00;;
80123;SDS011;69433;48.642;9.142;2023-12-28T07:31:24;3.30;;;2.10;;
80123;SDS011;69433;48.642;9.142;2023-12-28T07:36:18;2.90;;;1.85;;
80123;SDS011;69433;48.642;9.142;2023-12-28T07:38:44;3.88;;;2.22;;
80123;SDS011;69433;48.642;9.142;2023-12-28T07:41:11;3.42;;;2.10;;
80123;SDS011;69433;48.642;9.142;2023-12-28T07:43:54;2.88;;;2.00;;
80123;SDS011;69433;48.642;9.142;2023-12-28T07:46:28;2.55;;;1.85;;
80123;SDS011;69433;48.642;9.142;2023-12-28T07:48:54;3.63;;;2.30;;
80123;SDS011;69433;48.642;9.142;2023-12-28T07:51:27;5.50;;;2.20;;
80123;SDS011;69433;48.642;9.142;2023-12-28T07:57:14;4.70;;;2.40;;
80123;SDS011;69433;48.642;9.142;2023-12-28T07:59:46;3.53;;;2.40;;
80123;SDS011;69433;48.642;9.142;2023-12-28T08:02:19;3.35;;;2.20;;
80123;SDS011;69433;48.642;9.142;2023-12-28T08:04:59;4.20;;;2.33;;
80123;SDS011;69433;48.642;9.142;2023-12-28T08:07:37;3.55;;;2.33;;
80123;SDS011;69433;48.642;9.142;2023-12-28T08:10:02;5.05;;;2.20;;
80123;SDS011;69433;48.642;9.142;2023-12-28T08:12:30;5.13;;;2.00;;
80123;SDS011;69433;48.642;9.142;2023-12-28T08:14:58;3.30;;;1.98;;
80123;SDS011;69433;48.642;9.142;2023-12-28T08:20:24;4.05;;;2.03;;
80123;SDS011;69433;48.642;9.142;2023-12-28T08:22:49;3.15;;;2.05;;
80123;SDS011;69433;48.642;9.142;2023-12-28T08:25:16;5.43;;;2.40;;
80123;SDS011;69433;48.642;9.142;2023-12-28T08:27:43;5.72;;;2.53;;
80123;SDS011;69433;48.642;9.142;2023-12-28T08:30:08;3.60;;;2.15;;
80123;SDS011;69433;48.642;9.142;2023-12-28T08:36:05;3.10;;;2.10;;
80123;SDS011;69433;48.642;9.142;2023-12-28T08:38:48;2.80;;;1.90;;
80123;SDS011;69433;48.642;9.142;2023-12-28T08:41:23;3.80;;;2.35;;
80123;SDS011;69433;48.642;9.142;2023-12-28T08:49:13;3.20;;;1.90;;
80123;SDS011;69433;48.642;9.142;2023-12-28T08:51:50;3.70;;;2.63;;
80123;SDS011;69433;48.642;9.142;2023-12-28T08:54:33;4.35;;;2.10;;
80123;SDS011;69433;48.642;9.142;2023-12-28T08:57:04;5.70;;;2.35;;
80123;SDS011;69433;48.642;9.142;2023-12-28T08:59:30;6.35;;;2.35;;
80123;SDS011;69433;48.642;9.142;2023-12-28T09:02:02;3.30;;;1.85;;
80123;SDS011;69433;48.642;9.142;2023-12-28T09:04:28;3.33;;;1.95;;
80123;SDS011;69433;48.642;9.142;2023-12-28T09:07:03;5.82;;;2.42;;
80123;SDS011;69433;48.642;9.142;2023-12-28T09:09:37;3.17;;;2.00;;
80123;SDS011;69433;48.642;9.142;2023-12-28T09:12:10;4.97;;;1.95;;
80123;SDS011;69433;48.642;9.142;2023-12-28T09:14:38;4.93;;;1.98;;
80123;SDS011;69433;48.642;9.142;2023-12-28T09:17:04;4.60;;;2.08;;
80123;SDS011;69433;48.642;9.142;2023-12-28T09:19:33;5.05;;;2.00;;
80123;SDS011;69433;48.642;9.142;2023-12-28T09:22:05;3.22;;;1.90;;
80123;SDS011;69433;48.642;9.142;2023-12-28T09:24:37;5.20;;;2.13;;
80123;SDS011;69433;48.642;9.142;2023-12-28T09:27:02;3.97;;;1.80;;
80123;SDS011;69433;48.642;9.142;2023-12-28T09:29:37;3.72;;;1.75;;
80123;SDS011;69433;48.642;9.142;2023-12-28T09:32:10;5.63;;;2.05;;
80123;SDS011;69433;48.642;9.142;2023-12-28T09:34:43;4.00;;;2.38;;
80123;SDS011;69433;48.642;9.142;2023-12-28T09:37:10;4.28;;;1.95;;
80123;SDS011;69433;48.642;9.142;2023-12-28T09:39:35;5.22;;;2.00;;
80123;SDS011;69433;48.642;9.142;2023-12-28T09:42:16;4.28;;;2.17;;
80123;SDS011;69433;48.642;9.142;2023-12-28T09:44:59;3.55;;;1.98;;
80123;SDS011;69433;48.642;9.142;2023-12-28T09:49:57;4.65;;;1.98;;
80123;SDS011;69433;48.642;9.142;2023-12-28T09:55:08;5.72;;;3.70;;
80123;SDS011;69433;48.642;9.142;2023-12-28T10:00:06;31.02;;;19.08;;
80123;SDS011;69433;48.642;9.142;2023-12-28T10:02:44;40.00;;;25.25;;
80123;SDS011;69433;48.642;9.142;2023-12-28T10:05:20;80.38;;;48.35;;
80123;SDS011;69433;48.642;9.142;2023-12-28T10:07:47;88.43;;;53.88;;
80123;SDS011;69433;48.642;9.142;2023-12-28T10:10:12;82.47;;;50.95;;
80123;SDS011;69433;48.642;9.142;2023-12-28T10:12:38;77.07;;;48.38;;
80123;SDS011;69433;48.642;9.142;2023-12-28T10:15:16;70.07;;;44.25;;
80123;SDS011;69433;48.642;9.142;2023-12-28T10:17:41;71.78;;;42.75;;
80123;SDS011;69433;48.642;9.142;2023-12-28T10:20:07;72.93;;;43.55;;
80123;SDS011;69433;48.642;9.142;2023-12-28T10:22:37;70.63;;;43.50;;
80123;SDS011;69433;48.642;9.142;2023-12-28T10:25:06;77.20;;;42.83;;
80123;SDS011;69433;48.642;9.142;2023-12-28T10:27:32;66.30;;;40.97;;
80123;SDS011;69433;48.642;9.142;2023-12-28T10:29:58;64.05;;;39.30;;
80123;SDS011;69433;48.642;9.142;2023-12-28T10:32:30;64.55;;;39.25;;
80123;SDS011;69433;48.642;9.142;2023-12-28T10:34:58;61.55;;;38.40;;
80123;SDS011;69433;48.642;9.142;2023-12-28T10:37:26;62.72;;;38.38;;
80123;SDS011;69433;48.642;9.142;2023-12-28T10:39:56;60.53;;;38.83;;
80123;SDS011;69433;48.642;9.142;2023-12-28T10:42:41;64.57;;;38.88;;
80123;SDS011;69433;48.642;9.142;2023-12-28T10:45:10;57.28;;;35.65;;
80123;SDS011;69433;48.642;9.142;2023-12-28T10:47:43;49.67;;;28.80;;
80123;SDS011;69433;48.642;9.142;2023-12-28T10:59:24;26.95;;;18.48;;
80123;SDS011;69433;48.642;9.142;2023-12-28T11:02:06;30.58;;;15.68;;
80123;SDS011;69433;48.642;9.142;2023-12-28T11:04:37;25.02;;;15.23;;
80123;SDS011;69433;48.642;9.142;2023-12-28T11:10:03;25.38;;;15.32;;
80123;SDS011;69433;48.642;9.142;2023-12-28T11:12:32;23.60;;;15.07;;
80123;SDS011;69433;48.642;9.142;2023-12-28T11:14:59;25.63;;;14.90;;
80123;SDS011;69433;48.642;9.142;2023-12-28T11:17:30;27.60;;;14.75;;
80123;SDS011;69433;48.642;9.142;2023-12-28T11:19:56;24.17;;;15.98;;
80123;SDS011;69433;48.642;9.142;2023-12-28T11:22:29;49.38;;;17.88;;
80123;SDS011;69433;48.642;9.142;2023-12-28T11:24:55;81.72;;;21.25;;
80123;SDS011;69433;48.642;9.142;2023-12-28T11:27:37;57.28;;;19.20;;
80123;SDS011;69433;48.642;9.142;2023-12-28T11:30:12;51.03;;;18.13;;
80123;SDS011;69433;48.642;9.142;2023-12-28T11:32:45;40.90;;;17.20;;
80123;SDS011;69433;48.642;9.142;2023-12-28T11:35:13;36.15;;;16.38;;
80123;SDS011;69433;48.642;9.142;2023-12-28T11:40:10;36.60;;;15.68;;
80123;SDS011;69433;48.642;9.142;2023-12-28T11:42:50;28.50;;;13.93;;
80123;SDS011;69433;48.642;9.142;2023-12-28T11:48:01;26.85;;;14.73;;
80123;SDS011;69433;48.642;9.142;2023-12-28T11:50:39;32.42;;;13.52;;
80123;SDS011;69433;48.642;9.142;2023-12-28T11:53:20;30.73;;;13.32;;
80123;SDS011;69433;48.642;9.142;2023-12-28T11:55:45;31.15;;;13.30;;
80123;SDS011;69433;48.642;9.142;2023-12-28T11:58:28;35.42;;;13.35;;
80123;SDS011;69433;48.642;9.142;2023-12-28T12:00:54;28.60;;;13.27;;
80123;SDS011;69433;48.642;9.142;2023-12-28T12:06:47;25.02;;;12.80;;
80123;SDS011;69433;48.642;9.142;2023-12-28T12:09:13;26.38;;;12.15;;
80123;SDS011;69433;48.642;9.142;2023-12-28T12:14:14;27.27;;;12.95;;
80123;SDS011;69433;48.642;9.142;2023-12-28T12:16:39;26.45;;;12.20;;
80123;SDS011;69433;48.642;9.142;2023-12-28T12:19:05;24.52;;;11.45;;
80123;SDS011;69433;48.642;9.142;2023-12-28T12:21:33;26.40;;;12.10;;
80123;SDS011;69433;48.642;9.142;2023-12-28T12:23:59;26.15;;;12.20;;
80123;SDS011;69433;48.642;9.142;2023-12-28T12:26:25;23.67;;;12.02;;
80123;SDS011;69433;48.642;9.142;2023-12-28T12:31:57;27.25;;;12.02;;
80123;SDS011;69433;48.642;9.142;2023-12-28T12:34:23;23.38;;;11.60;;
80123;SDS011;69433;48.642;9.142;2023-12-28T12:36:48;26.27;;;11.70;;
80123;SDS011;69433;48.642;9.142;2023-12-28T12:39:29;23.05;;;11.50;;
80123;SDS011;69433;48.642;9.142;2023-12-28T12:44:47;21.50;;;10.68;;
80123;SDS011;69433;48.642;9.142;2023-12-28T12:47:14;22.92;;;10.82;;
80123;SDS011;69433;48.642;9.142;2023-12-28T12:49:43;20.38;;;10.35;;
80123;SDS011;69433;48.642;9.142;2023-12-28T12:52:20;21.02;;;10.40;;
80123;SDS011;69433;48.642;9.142;2023-12-28T12:54:59;21.00;;;11.05;;
80123;SDS011;69433;48.642;9.142;2023-12-28T13:00:29;20.00;;;9.65;;
80123;SDS011;69433;48.642;9.142;2023-12-28T13:03:01;19.15;;;9.88;;
80123;SDS011;69433;48.642;9.142;2023-12-28T13:05:26;16.48;;;10.07;;
80123;SDS011;69433;48.642;9.142;2023-12-28T13:07:53;19.52;;;10.27;;
80123;SDS011;69433;48.642;9.142;2023-12-28T13:10:27;17.15;;;9.70;;
80123;SDS011;69433;48.642;9.142;2023-12-28T13:12:52;17.50;;;9.48;;
80123;SDS011;69433;48.642;9.142;2023-12-28T13:15:25;22.70;;;10.65;;
80123;SDS011;69433;48.642;9.142;2023-12-28T13:17:50;18.52;;;10.25;;
80123;SDS011;69433;48.642;9.142;2023-12-28T13:20:16;20.88;;;10.35;;
80123;SDS011;69433;48.642;9.142;2023-12-28T13:22:45;16.20;;;9.38;;
80123;SDS011;69433;48.642;9.142;2023-12-28T13:28:29;20.52;;;9.23;;
80123;SDS011;69433;48.642;9.142;2023-12-28T13:31:04;17.55;;;9.52;;
80123;SDS011;69433;48.642;9.142;2023-12-28T13:36:00;17.13;;;8.75;;
80123;SDS011;69433;48.642;9.142;2023-12-28T13:38:25;15.80;;;8.00;;
80123;SDS011;69433;48.642;9.142;2023-12-28T13:40:56;17.00;;;9.02;;
80123;SDS011;69433;48.642;9.142;2023-12-28T13:46:07;14.73;;;9.07;;
80123;SDS011;69433;48.642;9.142;2023-12-28T13:48:37;16.45;;;9.80;;
80123;SDS011;69433;48.642;9.142;2023-12-28T13:56:38;14.93;;;8.30;;
80123;SDS011;69433;48.642;9.142;2023-12-28T13:59:03;16.45;;;8.23;;
80123;SDS011;69433;48.642;9.142;2023-12-28T14:01:29;16.52;;;8.65;;
80123;SDS011;69433;48.642;9.142;2023-12-28T14:03:55;13.20;;;7.55;;
80123;SDS011;69433;48.642;9.142;2023-12-28T14:06:21;17.10;;;8.35;;
80123;SDS011;69433;48.642;9.142;2023-12-28T14:08:46;13.80;;;8.60;;
80123;SDS011;69433;48.642;9.142;2023-12-28T14:11:11;12.57;;;7.90;;
80123;SDS011;69433;48.642;9.142;2023-12-28T14:16:05;15.50;;;8.18;;
80123;SDS011;69433;48.642;9.142;2023-12-28T14:18:31;16.23;;;8.13;;
80123;SDS011;69433;48.642;9.142;2023-12-28T14:21:03;14.38;;;8.35;;
80123;SDS011;69433;48.642;9.142;2023-12-28T14:23:29;14.75;;;7.50;;
80123;SDS011;69433;48.642;9.142;2023-12-28T14:28:55;13.35;;;7.20;;
80123;SDS011;69433;48.642;9.142;2023-12-28T14:31:22;19.00;;;7.95;;
80123;SDS011;69433;48.642;9.142;2023-12-28T14:33:55;15.57;;;7.63;;
80123;SDS011;69433;48.642;9.142;2023-12-28T14:36:30;14.32;;;8.00;;
80123;SDS011;69433;48.642;9.142;2023-12-28T14:39:01;12.75;;;7.90;;
80123;SDS011;69433;48.642;9.142;2023-12-28T14:41:27;12.77;;;7.55;;
80123;SDS011;69433;48.642;9.142;2023-12-28T14:43:53;20.05;;;8.20;;
80123;SDS011;69433;48.642;9.142;2023-12-28T14:46:27;13.38;;;7.38;;
80123;SDS011;69433;48.642;9.142;2023-12-28T14:48:52;13.18;;;7.78;;
80123;SDS011;69433;48.642;9.142;2023-12-28T14:51:21;14.13;;;7.70;;
80123;SDS011;69433;48.642;9.142;2023-12-28T14:53:48;16.15;;;7.90;;
80123;SDS011;69433;48.642;9.142;2023-12-28T14:56:21;16.15;;;7.85;;
80123;SDS011;69433;48.642;9.142;2023-12-28T15:01:40;13.88;;;7.32;;
80123;SDS011;69433;48.642;9.142;2023-12-28T15:04:05;21.20;;;7.75;;
80123;SDS011;69433;48.642;9.142;2023-12-28T15:06:30;15.00;;;7.53;;
80123;SDS011;69433;48.642;9.142;2023-12-28T15:11:44;13.75;;;7.00;;
80123;SDS011;69433;48.642;9.142;2023-12-28T15:14:09;13.15;;;7.28;;
80123;SDS011;69433;48.642;9.142;2023-12-28T15:16:35;12.82;;;7.20;;
80123;SDS011;69433;48.642;9.142;2023-12-28T15:19:00;11.95;;;7.38;;
80123;SDS011;69433;48.642;9.142;2023-12-28T15:27:24;14.30;;;7.47;;
80123;SDS011;69433;48.642;9.142;2023-12-28T15:29:53;12.82;;;6.90;;
80123;SDS011;69433;48.642;9.142;2023-12-28T15:32:20;11.80;;;7.00;;
80123;SDS011;69433;48.642;9.142;2023-12-28T15:34:46;13.00;;;7.13;;
80123;SDS011;69433;48.642;9.142;2023-12-28T15:37:30;13.38;;;6.50;;
80123;SDS011;69433;48.642;9.142;2023-12-28T15:40:01;10.82;;;6.35;;
80123;SDS011;69433;48.642;9.142;2023-12-28T15:42:26;11.52;;;6.53;;
80123;SDS011;69433;48.642;9.142;2023-12-28T15:44:51;10.35;;;6.32;;
80123;SDS011;69433;48.642;9.142;2023-12-28T15:47:20;9.65;;;6.55;;
80123;SDS011;69433;48.642;9.142;2023-12-28T15:52:39;11.23;;;6.45;;
80123;SDS011;69433;48.642;9.142;2023-12-28T16:00:42;12.75;;;6.65;;
80123;SDS011;69433;48.642;9.142;2023-12-28T16:03:16;12.88;;;6.30;;
80123;SDS011;69433;48.642;9.142;2023-12-28T16:05:44;10.52;;;5.82;;
80123;SDS011;69433;48.642;9.142;2023-12-28T16:08:10;10.73;;;5.93;;
80123;SDS011;69433;48.642;9.142;2023-12-28T16:10:37;11.07;;;6.00;;
80123;SDS011;69433;48.642;9.142;2023-12-28T16:13:03;15.55;;;6.22;;
80123;SDS011;69433;48.642;9.142;2023-12-28T16:15:29;11.00;;;6.15;;
80123;SDS011;69433;48.642;9.142;2023-12-28T16:20:43;12.02;;;6.25;;
80123;SDS011;69433;48.642;9.142;2023-12-28T16:26:06;13.20;;;6.15;;
80123;SDS011;69433;48.642;9.142;2023-12-28T16:28:41;9.13;;;5.72;;
80123;SDS011;69433;48.642;9.142;2023-12-28T16:34:05;10.35;;;5.85;;
80123;SDS011;69433;48.642;9.142;2023-12-28T16:36:35;11.45;;;5.57;;
80123;SDS011;69433;48.642;9.142;2023-12-28T16:39:00;10.93;;;5.07;;
80123;SDS011;69433;48.642;9.142;2023-12-28T16:41:39;13.38;;;5.53;;
80123;SDS011;69433;48.642;9.142;2023-12-28T16:44:11;10.55;;;5.97;;
80123;SDS011;69433;48.642;9.142;2023-12-28T16:49:23;92.13;;;55.72;;
80123;SDS011;69433;48.642;9.142;2023-12-28T16:51:58;108.78;;;67.53;;
80123;SDS011;69433;48.642;9.142;2023-12-28T16:54:27;109.95;;;68.38;;
80123;SDS011;69433;48.642;9.142;2023-12-28T16:56:54;109.55;;;66.15;;
80123;SDS011;69433;48.642;9.142;2023-12-28T16:59:27;97.38;;;60.88;;
80123;SDS011;69433;48.642;9.142;2023-12-28T17:07:20;90.07;;;57.00;;
80123;SDS011;69433;48.642;9.142;2023-12-28T17:15:37;84.93;;;55.58;;
80123;SDS011;69433;48.642;9.142;2023-12-28T17:18:05;78.53;;;50.13;;
80123;SDS011;69433;48.642;9.142;2023-12-28T17:20:33;79.25;;;50.85;;
80123;SDS011;69433;48.642;9.142;2023-12-28T17:31:44;77.45;;;49.70;;
80123;SDS011;69433;48.642;9.142;2023-12-28T17:36:41;74.22;;;49.78;;
80123;SDS011;69433;48.642;9.142;2023-12-28T17:39:07;72.18;;;47.55;;
80123;SDS011;69433;48.642;9.142;2023-12-28T17:41:33;69.88;;;46.45;;
80123;SDS011;69433;48.642;9.142;2023-12-28T17:50:14;71.70;;;46.10;;
80123;SDS011;69433;48.642;9.142;2023-12-28T17:52:39;70.55;;;44.97;;
80123;SDS011;69433;48.642;9.142;2023-12-28T17:55:08;69.38;;;44.05;;
80123;SDS011;69433;48.642;9.142;2023-12-28T18:00:36;68.82;;;43.10;;
80123;SDS011;69433;48.642;9.142;2023-12-28T18:03:03;66.85;;;43.30;;
80123;SDS011;69433;48.642;9.142;2023-12-28T18:05:32;62.85;;;41.92;;
80123;SDS011;69433;48.642;9.142;2023-12-28T18:08:13;67.15;;;42.80;;
80123;SDS011;69433;48.642;9.142;2023-12-28T18:10:40;65.10;;;43.92;;
80123;SDS011;69433;48.642;9.142;2023-12-28T18:13:05;63.97;;;41.75;;
80123;SDS011;69433;48.642;9.142;2023-12-28T18:15:36;66.80;;;42.35;;
80123;SDS011;69433;48.642;9.142;2023-12-28T18:18:13;60.00;;;39.47;;
80123;SDS011;69433;48.642;9.142;2023-12-28T18:20:39;62.67;;;42.00;;
80123;SDS011;69433;48.642;9.142;2023-12-28T18:23:13;60.67;;;39.55;;
80123;SDS011;69433;48.642;9.142;2023-12-28T18:25:54;62.67;;;40.47;;
80123;SDS011;69433;48.642;9.142;2023-12-28T18:28:20;58.35;;;38.60;;
80123;SDS011;69433;48.642;9.142;2023-12-28T18:30:53;62.55;;;40.75;;
80123;SDS011;69433;48.642;9.142;2023-12-28T18:36:17;59.25;;;39.05;;
80123;SDS011;69433;48.642;9.142;2023-12-28T18:38:44;58.33;;;38.83;;
80123;SDS011;69433;48.642;9.142;2023-12-28T18:41:10;56.17;;;37.75;;
80123;SDS011;69433;48.642;9.142;2023-12-28T18:43:35;57.72;;;38.78;;
80123;SDS011;69433;48.642;9.142;2023-12-28T18:46:01;57.08;;;38.10;;
80123;SDS011;69433;48.642;9.142;2023-12-28T18:48:31;52.97;;;36.08;;
80123;SDS011;69433;48.642;9.142;2023-12-28T18:50:58;56.33;;;36.30;;
80123;SDS011;69433;48.642;9.142;2023-12-28T18:53:30;53.13;;;35.58;;
80123;SDS011;69433;48.642;9.142;2023-12-28T18:55:58;52.72;;;37.22;;
80123;SDS011;69433;48.642;9.142;2023-12-28T18:58:26;54.90;;;36.63;;
80123;SDS011;69433;48.642;9.142;2023-12-28T19:00:55;53.05;;;35.88;;
80123;SDS011;69433;48.642;9.142;2023-12-28T19:03:25;50.72;;;35.15;;
80123;SDS011;69433;48.642;9.142;2023-12-28T19:05:59;51.50;;;37.55;;
80123;SDS011;69433;48.642;9.142;2023-12-28T19:08:26;48.47;;;33.92;;
80123;SDS011;69433;48.642;9.142;2023-12-28T19:14:29;46.17;;;33.08;;
80123;SDS011;69433;48.642;9.142;2023-12-28T19:22:38;69.32;;;37.50;;
80123;SDS011;69433;48.642;9.142;2023-12-28T19:25:13;59.33;;;34.65;;
80123;SDS011;69433;48.642;9.142;2023-12-28T19:27:49;58.00;;;34.40;;
80123;SDS011;69433;48.642;9.142;2023-12-28T19:30:14;54.13;;;32.13;;
80123;SDS011;69433;48.642;9.142;2023-12-28T19:32:56;45.45;;;28.17;;
80123;SDS011;69433;48.642;9.142;2023-12-28T19:35:30;45.97;;;30.63;;
80123;SDS011;69433;48.642;9.142;2023-12-28T19:37:56;47.92;;;28.80;;